sensor_id;sensor_type;location;lat;lon;timestamp;pressure;altitude;pressure_sealevel;temperature;humidity
31239;BME280;17871;31.584;74.450;2023-05-19T00:00:36;98090.34;;;29.32;57.19
31239;BME280;17871;31.584;74.450;2023-05-19T00:03:05;98087.94;;;29.29;56.92
31239;BME280;17871;31.584;74.450;2023-05-19T00:05:38;98092.63;;;29.37;56.44
31239;BME280;17871;31.584;74.450;2023-05-19T00:08:16;98102.00;;;29.41;57.17
31239;BME280;17871;31.584;74.450;2023-05-19T00:10:47;98094.03;;;29.29;57.23
31239;BME280;17871;31.584;74.450;2023-05-19T00:13:16;98096.66;;;29.29;57.25
31239;BME280;17871;31.584;74.450;2023-05-19T00:15:46;98100.00;;;29.31;56.70
31239;BME280;17871;31.584;74.450;2023-05-19T00:18:16;98098.22;;;29.32;56.99
31239;BME280;17871;31.584;74.450;2023-05-19T00:20:46;98094.97;;;29.28;56.63
31239;BME280;17871;31.584;74.450;2023-05-19T00:23:15;98096.44;;;29.32;56.41
31239;BME280;17871;31.584;74.450;2023-05-19T00:25:44;98102.09;;;29.39;55.91
31239;BME280;17871;31.584;74.450;2023-05-19T00:28:14;98098.28;;;29.43;55.79
31239;BME280;17871;31.584;74.450;2023-05-19T00:30:44;98100.34;;;29.51;55.44
31239;BME280;17871;31.584;74.450;2023-05-19T00:33:13;98107.41;;;29.50;55.05
31239;BME280;17871;31.584;74.450;2023-05-19T00:35:42;98107.06;;;29.55;55.12
31239;BME280;17871;31.584;74.450;2023-05-19T00:38:12;98105.56;;;29.63;54.59
31239;BME280;17871;31.584;74.450;2023-05-19T00:40:41;98109.38;;;29.59;55.17
31239;BME280;17871;31.584;74.450;2023-05-19T00:43:11;98103.16;;;29.60;55.44
31239;BME280;17871;31.584;74.450;2023-05-19T00:45:41;98102.63;;;29.55;55.17
31239;BME280;17871;31.584;74.450;2023-05-19T00:48:10;98105.56;;;29.63;54.85
31239;BME280;17871;31.584;74.450;2023-05-19T00:50:40;98108.41;;;29.60;54.87
31239;BME280;17871;31.584;74.450;2023-05-19T00:53:11;98103.91;;;29.73;54.27
31239;BME280;17871;31.584;74.450;2023-05-19T00:55:41;98115.63;;;29.69;54.10
31239;BME280;17871;31.584;74.450;2023-05-19T00:58:11;98108.44;;;29.71;53.97
31239;BME280;17871;31.584;74.450;2023-05-19T01:00:42;98106.78;;;29.81;54.24
31239;BME280;17871;31.584;74.450;2023-05-19T01:03:13;98107.75;;;29.80;53.92
31239;BME280;17871;31.584;74.450;2023-05-19T01:05:48;98102.31;;;29.83;54.03
31239;BME280;17871;31.584;74.450;2023-05-19T01:08:21;98101.31;;;29.84;55.02
31239;BME280;17871;31.584;74.450;2023-05-19T01:10:56;98100.03;;;29.90;53.47
31239;BME280;17871;31.584;74.450;2023-05-19T01:13:28;98109.75;;;30.01;53.21
31239;BME280;17871;31.584;74.450;2023-05-19T01:16:19;98107.47;;;29.96;53.37
31239;BME280;17871;31.584;74.450;2023-05-19T01:21:51;98108.09;;;30.11;53.19
31239;BME280;17871;31.584;74.450;2023-05-19T01:27:52;98102.13;;;30.31;52.03
31239;BME280;17871;31.584;74.450;2023-05-19T01:30:34;98095.75;;;30.33;51.87
31239;BME280;17871;31.584;74.450;2023-05-19T01:33:11;98099.13;;;30.35;52.01
31239;BME280;17871;31.584;74.450;2023-05-19T01:35:44;98109.09;;;30.32;52.37
31239;BME280;17871;31.584;74.450;2023-05-19T01:38:18;98109.22;;;30.42;52.01
31239;BME280;17871;31.584;74.450;2023-05-19T01:40:49;98111.75;;;30.43;51.84
31239;BME280;17871;31.584;74.450;2023-05-19T01:43:21;98110.78;;;30.44;51.64
31239;BME280;17871;31.584;74.450;2023-05-19T01:45:52;98115.13;;;30.45;51.90
31239;BME280;17871;31.584;74.450;2023-05-19T01:48:28;98115.13;;;30.45;51.49
31239;BME280;17871;31.584;74.450;2023-05-19T01:51:00;98113.41;;;30.66;51.32
31239;BME280;17871;31.584;74.450;2023-05-19T01:53:30;98115.84;;;30.58;51.01
31239;BME280;17871;31.584;74.450;2023-05-19T01:56:01;98117.97;;;30.64;50.08
31239;BME280;17871;31.584;74.450;2023-05-19T02:04:08;98119.66;;;30.99;49.29
31239;BME280;17871;31.584;74.450;2023-05-19T02:17:42;98119.88;;;30.96;49.10
31239;BME280;17871;31.584;74.450;2023-05-19T02:20:16;98123.25;;;30.98;49.49
31239;BME280;17871;31.584;74.450;2023-05-19T02:22:46;98120.47;;;31.21;49.76
31239;BME280;17871;31.584;74.450;2023-05-19T02:25:15;98124.84;;;31.32;48.76
31239;BME280;17871;31.584;74.450;2023-05-19T02:27:45;98127.44;;;31.00;48.29
31239;BME280;17871;31.584;74.450;2023-05-19T02:30:16;98126.81;;;31.19;49.23
31239;BME280;17871;31.584;74.450;2023-05-19T02:32:46;98117.84;;;31.42;49.23
31239;BME280;17871;31.584;74.450;2023-05-19T02:35:16;98120.50;;;31.42;48.90
31239;BME280;17871;31.584;74.450;2023-05-19T02:37:45;98121.59;;;31.51;48.62
31239;BME280;17871;31.584;74.450;2023-05-19T02:40:15;98126.38;;;31.57;48.42
31239;BME280;17871;31.584;74.450;2023-05-19T02:42:44;98126.31;;;31.68;48.82
31239;BME280;17871;31.584;74.450;2023-05-19T02:45:13;98130.69;;;31.78;49.04
31239;BME280;17871;31.584;74.450;2023-05-19T02:47:43;98135.03;;;31.79;48.24
31239;BME280;17871;31.584;74.450;2023-05-19T02:50:13;98138.94;;;31.64;48.52
31239;BME280;17871;31.584;74.450;2023-05-19T02:52:42;98140.94;;;31.72;48.58
31239;BME280;17871;31.584;74.450;2023-05-19T02:55:12;98144.78;;;32.00;48.70
31239;BME280;17871;31.584;74.450;2023-05-19T02:57:44;98139.50;;;32.00;48.52
31239;BME280;17871;31.584;74.450;2023-05-19T03:00:14;98143.34;;;32.07;48.27
31239;BME280;17871;31.584;74.450;2023-05-19T03:02:44;98139.69;;;32.08;47.91
31239;BME280;17871;31.584;74.450;2023-05-19T03:05:14;98139.91;;;32.16;48.06
31239;BME280;17871;31.584;74.450;2023-05-19T03:07:43;98145.72;;;32.10;47.67
31239;BME280;17871;31.584;74.450;2023-05-19T03:10:13;98141.25;;;32.10;48.28
31239;BME280;17871;31.584;74.450;2023-05-19T03:12:42;98135.41;;;32.07;48.29
31239;BME280;17871;31.584;74.450;2023-05-19T03:15:12;98134.97;;;32.32;47.86
31239;BME280;17871;31.584;74.450;2023-05-19T03:17:43;98129.16;;;32.38;47.41
31239;BME280;17871;31.584;74.450;2023-05-19T03:20:12;98138.19;;;32.56;47.22
31239;BME280;17871;31.584;74.450;2023-05-19T03:22:43;98132.84;;;32.47;47.49
31239;BME280;17871;31.584;74.450;2023-05-19T03:25:16;98141.66;;;32.57;48.35
31239;BME280;17871;31.584;74.450;2023-05-19T03:27:45;98139.09;;;32.46;47.71
31239;BME280;17871;31.584;74.450;2023-05-19T03:30:15;98136.50;;;32.55;48.29
31239;BME280;17871;31.584;74.450;2023-05-19T03:33:10;98135.19;;;32.70;46.80
31239;BME280;17871;31.584;74.450;2023-05-19T03:35:40;98137.59;;;32.73;46.75
31239;BME280;17871;31.584;74.450;2023-05-19T03:38:13;98145.25;;;32.76;46.22
31239;BME280;17871;31.584;74.450;2023-05-19T03:40:51;98148.34;;;32.81;46.73
31239;BME280;17871;31.584;74.450;2023-05-19T03:43:21;98141.00;;;33.04;45.94
31239;BME280;17871;31.584;74.450;2023-05-19T03:45:57;98141.97;;;33.03;45.66
31239;BME280;17871;31.584;74.450;2023-05-19T03:48:46;98144.28;;;33.17;45.17
31239;BME280;17871;31.584;74.450;2023-05-19T03:51:15;98142.78;;;33.34;45.74
31239;BME280;17871;31.584;74.450;2023-05-19T03:53:47;98136.81;;;33.51;44.66
31239;BME280;17871;31.584;74.450;2023-05-19T03:56:18;98132.47;;;33.40;44.93
31239;BME280;17871;31.584;74.450;2023-05-19T03:58:53;98136.53;;;33.45;44.82
31239;BME280;17871;31.584;74.450;2023-05-19T04:01:23;98140.59;;;33.58;44.43
31239;BME280;17871;31.584;74.450;2023-05-19T04:03:52;98137.97;;;33.68;44.22
31239;BME280;17871;31.584;74.450;2023-05-19T04:06:22;98137.69;;;33.71;43.33
31239;BME280;17871;31.584;74.450;2023-05-19T04:08:53;98138.34;;;34.02;44.08
31239;BME280;17871;31.584;74.450;2023-05-19T04:11:22;98134.72;;;33.93;43.31
31239;BME280;17871;31.584;74.450;2023-05-19T04:13:52;98133.59;;;34.05;42.52
31239;BME280;17871;31.584;74.450;2023-05-19T04:16:21;98135.63;;;34.40;42.63
31239;BME280;17871;31.584;74.450;2023-05-19T04:18:51;98134.81;;;34.39;42.07
31239;BME280;17871;31.584;74.450;2023-05-19T04:21:20;98134.75;;;34.49;42.73
31239;BME280;17871;31.584;74.450;2023-05-19T04:23:53;98130.53;;;34.66;42.49
31239;BME280;17871;31.584;74.450;2023-05-19T04:26:25;98133.63;;;34.61;42.28
31239;BME280;17871;31.584;74.450;2023-05-19T04:28:58;98133.28;;;34.83;41.73
31239;BME280;17871;31.584;74.450;2023-05-19T04:31:30;98121.31;;;34.97;41.33
31239;BME280;17871;31.584;74.450;2023-05-19T04:33:59;98133.69;;;35.16;40.64
31239;BME280;17871;31.584;74.450;2023-05-19T04:36:31;98124.13;;;35.23;41.43
31239;BME280;17871;31.584;74.450;2023-05-19T04:39:03;98127.03;;;35.65;40.04
31239;BME280;17871;31.584;74.450;2023-05-19T04:41:38;98122.88;;;35.62;40.11
31239;BME280;17871;31.584;74.450;2023-05-19T04:44:08;98126.72;;;35.85;40.18
31239;BME280;17871;31.584;74.450;2023-05-19T04:46:37;98121.78;;;35.90;39.77
31239;BME280;17871;31.584;74.450;2023-05-19T04:49:10;98127.31;;;36.15;39.89
31239;BME280;17871;31.584;74.450;2023-05-19T04:51:43;98124.13;;;35.58;38.92
31239;BME280;17871;31.584;74.450;2023-05-19T04:54:14;98122.31;;;36.12;38.69
31239;BME280;17871;31.584;74.450;2023-05-19T04:56:43;98125.00;;;36.20;38.57
31239;BME280;17871;31.584;74.450;2023-05-19T04:59:14;98121.63;;;36.35;37.36
31239;BME280;17871;31.584;74.450;2023-05-19T05:01:43;98118.69;;;36.47;37.70
31239;BME280;17871;31.584;74.450;2023-05-19T05:04:15;98122.31;;;36.12;37.11
31239;BME280;17871;31.584;74.450;2023-05-19T05:06:45;98126.63;;;36.13;36.45
31239;BME280;17871;31.584;74.450;2023-05-19T05:09:17;98120.28;;;36.57;37.23
31239;BME280;17871;31.584;74.450;2023-05-19T05:11:50;98125.88;;;36.80;36.65
31239;BME280;17871;31.584;74.450;2023-05-19T05:14:20;98131.00;;;36.73;35.71
31239;BME280;17871;31.584;74.450;2023-05-19T05:16:50;98117.94;;;36.62;35.47
31239;BME280;17871;31.584;74.450;2023-05-19T05:19:22;98127.75;;;36.96;35.78
31239;BME280;17871;31.584;74.450;2023-05-19T05:21:53;98124.19;;;37.05;35.62
31239;BME280;17871;31.584;74.450;2023-05-19T05:24:24;98115.25;;;36.96;34.32
31239;BME280;17871;31.584;74.450;2023-05-19T05:26:58;98119.41;;;37.24;35.51
31239;BME280;17871;31.584;74.450;2023-05-19T05:29:29;98117.72;;;37.23;34.41
31239;BME280;17871;31.584;74.450;2023-05-19T05:32:00;98115.59;;;37.43;35.63
31239;BME280;17871;31.584;74.450;2023-05-19T05:34:30;98121.88;;;37.18;35.24
31239;BME280;17871;31.584;74.450;2023-05-19T05:37:00;98112.16;;;37.67;35.31
31239;BME280;17871;31.584;74.450;2023-05-19T05:39:33;98123.31;;;37.70;32.91
31239;BME280;17871;31.584;74.450;2023-05-19T05:42:24;98117.13;;;37.86;33.22
31239;BME280;17871;31.584;74.450;2023-05-19T05:44:56;98115.97;;;37.72;32.58
31239;BME280;17871;31.584;74.450;2023-05-19T05:47:26;98123.31;;;37.86;33.13
31239;BME280;17871;31.584;74.450;2023-05-19T05:49:56;98112.16;;;37.99;32.49
31239;BME280;17871;31.584;74.450;2023-05-19T05:52:29;98117.63;;;38.22;32.85
31239;BME280;17871;31.584;74.450;2023-05-19T05:55:00;98114.81;;;37.99;32.02
31239;BME280;17871;31.584;74.450;2023-05-19T05:57:30;98115.63;;;38.24;32.16
31239;BME280;17871;31.584;74.450;2023-05-19T05:59:59;98113.13;;;38.38;30.80
31239;BME280;17871;31.584;74.450;2023-05-19T06:02:30;98115.13;;;38.36;30.68
31239;BME280;17871;31.584;74.450;2023-05-19T06:05:00;98123.56;;;38.64;30.79
31239;BME280;17871;31.584;74.450;2023-05-19T06:07:30;98116.53;;;38.71;31.71
31239;BME280;17871;31.584;74.450;2023-05-19T06:10:00;98120.53;;;38.75;32.53
31239;BME280;17871;31.584;74.450;2023-05-19T06:12:36;98120.88;;;39.11;32.45
31239;BME280;17871;31.584;74.450;2023-05-19T06:15:11;98104.84;;;38.72;30.98
31239;BME280;17871;31.584;74.450;2023-05-19T06:17:57;98113.59;;;38.97;31.30
31239;BME280;17871;31.584;74.450;2023-05-19T06:20:27;98107.81;;;38.77;31.60
31239;BME280;17871;31.584;74.450;2023-05-19T06:22:59;98111.25;;;39.02;30.84
31239;BME280;17871;31.584;74.450;2023-05-19T06:25:29;98098.41;;;39.28;30.47
31239;BME280;17871;31.584;74.450;2023-05-19T06:28:00;98101.97;;;38.82;29.95
31239;BME280;17871;31.584;74.450;2023-05-19T06:30:30;98105.19;;;39.39;31.06
31239;BME280;17871;31.584;74.450;2023-05-19T06:33:14;98096.13;;;39.09;29.99
31239;BME280;17871;31.584;74.450;2023-05-19T06:35:44;98094.78;;;39.44;29.43
31239;BME280;17871;31.584;74.450;2023-05-19T06:38:15;98087.94;;;39.87;29.83
31239;BME280;17871;31.584;74.450;2023-05-19T06:40:45;98090.09;;;40.06;29.59
31239;BME280;17871;31.584;74.450;2023-05-19T06:43:15;98089.06;;;39.92;28.96
31239;BME280;17871;31.584;74.450;2023-05-19T06:45:53;98090.63;;;39.64;29.54
31239;BME280;17871;31.584;74.450;2023-05-19T06:48:25;98083.69;;;39.78;28.86
31239;BME280;17871;31.584;74.450;2023-05-19T06:50:54;98083.97;;;39.60;28.94
31239;BME280;17871;31.584;74.450;2023-05-19T06:53:25;98089.94;;;39.70;29.23
31239;BME280;17871;31.584;74.450;2023-05-19T06:55:55;98075.81;;;39.76;29.60
31239;BME280;17871;31.584;74.450;2023-05-19T06:58:32;98075.41;;;39.65;28.64
31239;BME280;17871;31.584;74.450;2023-05-19T07:01:04;98082.16;;;39.53;29.13
31239;BME280;17871;31.584;74.450;2023-05-19T07:03:41;98070.31;;;39.78;28.44
31239;BME280;17871;31.584;74.450;2023-05-19T07:06:14;98062.28;;;39.92;28.52
31239;BME280;17871;31.584;74.450;2023-05-19T07:08:46;98060.13;;;40.11;28.08
31239;BME280;17871;31.584;74.450;2023-05-19T07:11:17;98066.91;;;39.99;28.12
31239;BME280;17871;31.584;74.450;2023-05-19T07:13:48;98071.69;;;39.66;28.90
31239;BME280;17871;31.584;74.450;2023-05-19T07:16:23;98065.53;;;39.88;27.97
31239;BME280;17871;31.584;74.450;2023-05-19T07:19:00;98061.91;;;39.58;28.60
31239;BME280;17871;31.584;74.450;2023-05-19T07:21:58;98056.28;;;39.90;28.36
31239;BME280;17871;31.584;74.450;2023-05-19T07:24:37;98051.44;;;40.38;28.49
31239;BME280;17871;31.584;74.450;2023-05-19T07:27:26;98056.16;;;40.21;27.61
31239;BME280;17871;31.584;74.450;2023-05-19T07:30:09;98041.19;;;40.41;27.67
31239;BME280;17871;31.584;74.450;2023-05-19T07:33:13;98046.16;;;40.01;27.95
31239;BME280;17871;31.584;74.450;2023-05-19T07:36:25;98040.28;;;40.64;28.29
31239;BME280;17871;31.584;74.450;2023-05-19T07:39:29;98035.47;;;40.74;27.39
31239;BME280;17871;31.584;74.450;2023-05-19T07:42:29;98040.22;;;40.57;28.24
31239;BME280;17871;31.584;74.450;2023-05-19T07:45:04;98037.09;;;40.75;27.92
31239;BME280;17871;31.584;74.450;2023-05-19T07:48:02;98031.50;;;40.55;26.44
31239;BME280;17871;31.584;74.450;2023-05-19T07:50:51;98020.22;;;40.16;27.01
31239;BME280;17871;31.584;74.450;2023-05-19T07:53:28;98025.50;;;40.24;28.20
31239;BME280;17871;31.584;74.450;2023-05-19T07:56:27;98020.31;;;40.37;27.71
31239;BME280;17871;31.584;74.450;2023-05-19T07:59:42;98017.09;;;40.56;27.49
31239;BME280;17871;31.584;74.450;2023-05-19T08:02:41;98002.84;;;40.12;28.00
31239;BME280;17871;31.584;74.450;2023-05-19T08:05:25;97993.88;;;40.49;27.58
31239;BME280;17871;31.584;74.450;2023-05-19T08:08:32;97988.00;;;40.53;27.97
31239;BME280;17871;31.584;74.450;2023-05-19T08:11:24;97990.66;;;40.53;27.51
31239;BME280;17871;31.584;74.450;2023-05-19T08:14:23;97983.31;;;40.76;27.55
31239;BME280;17871;31.584;74.450;2023-05-19T08:17:06;97983.34;;;40.62;27.18
31239;BME280;17871;31.584;74.450;2023-05-19T08:20:01;97975.97;;;40.64;27.67
31239;BME280;17871;31.584;74.450;2023-05-19T08:23:19;97969.91;;;40.76;28.33
31239;BME280;17871;31.584;74.450;2023-05-19T08:26:11;97968.34;;;41.24;27.71
31239;BME280;17871;31.584;74.450;2023-05-19T08:29:23;97963.84;;;41.31;26.44
31239;BME280;17871;31.584;74.450;2023-05-19T08:32:18;97957.19;;;41.42;26.62
31239;BME280;17871;31.584;74.450;2023-05-19T08:35:20;97962.59;;;41.49;27.50
31239;BME280;17871;31.584;74.450;2023-05-19T08:38:05;97945.13;;;41.59;26.09
31239;BME280;17871;31.584;74.450;2023-05-19T08:41:02;97948.47;;;41.40;26.39
31239;BME280;17871;31.584;74.450;2023-05-19T08:44:09;97941.59;;;41.86;26.60
31239;BME280;17871;31.584;74.450;2023-05-19T08:47:06;97936.19;;;41.31;26.02
31239;BME280;17871;31.584;74.450;2023-05-19T08:50:05;97941.41;;;41.60;26.19
31239;BME280;17871;31.584;74.450;2023-05-19T08:55:43;97939.13;;;41.85;25.91
31239;BME280;17871;31.584;74.450;2023-05-19T08:58:26;97931.78;;;42.07;26.54
31239;BME280;17871;31.584;74.450;2023-05-19T09:01:00;97928.00;;;41.95;25.46
31239;BME280;17871;31.584;74.450;2023-05-19T09:03:38;97926.97;;;41.89;26.05
31239;BME280;17871;31.584;74.450;2023-05-19T09:06:15;97924.91;;;41.63;25.54
31239;BME280;17871;31.584;74.450;2023-05-19T09:09:00;97913.63;;;41.74;25.98
31239;BME280;17871;31.584;74.450;2023-05-19T09:11:33;97908.38;;;41.66;25.73
31239;BME280;17871;31.584;74.450;2023-05-19T09:14:08;97909.88;;;41.69;26.01
31239;BME280;17871;31.584;74.450;2023-05-19T09:16:41;97910.75;;;41.48;25.61
31239;BME280;17871;31.584;74.450;2023-05-19T09:19:14;97912.66;;;41.54;26.20
31239;BME280;17871;31.584;74.450;2023-05-19T09:22:01;97905.00;;;41.51;25.77
31239;BME280;17871;31.584;74.450;2023-05-19T09:24:38;97897.78;;;41.52;26.42
31239;BME280;17871;31.584;74.450;2023-05-19T09:27:19;97897.19;;;41.28;26.13
31239;BME280;17871;31.584;74.450;2023-05-19T09:30:07;97887.69;;;41.26;26.69
31239;BME280;17871;31.584;74.450;2023-05-19T09:32:45;97886.22;;;41.30;25.56
31239;BME280;17871;31.584;74.450;2023-05-19T09:35:39;97882.06;;;41.21;26.25
31239;BME280;17871;31.584;74.450;2023-05-19T09:38:19;97874.75;;;41.36;26.19
31239;BME280;17871;31.584;74.450;2023-05-19T09:40:58;97875.03;;;41.20;27.41
31239;BME280;17871;31.584;74.450;2023-05-19T09:43:36;97862.59;;;41.40;28.09
31239;BME280;17871;31.584;74.450;2023-05-19T09:46:13;97873.63;;;41.52;26.39
31239;BME280;17871;31.584;74.450;2023-05-19T09:48:50;97861.41;;;41.21;26.70
31239;BME280;17871;31.584;74.450;2023-05-19T09:51:45;97866.44;;;40.82;26.68
31239;BME280;17871;31.584;74.450;2023-05-19T09:54:32;97858.22;;;41.32;26.61
31239;BME280;17871;31.584;74.450;2023-05-19T09:57:07;97854.81;;;41.24;26.55
31239;BME280;17871;31.584;74.450;2023-05-19T09:59:40;97847.34;;;41.13;25.63
31239;BME280;17871;31.584;74.450;2023-05-19T10:02:17;97849.41;;;41.17;26.93
31239;BME280;17871;31.584;74.450;2023-05-19T10:04:54;97847.81;;;41.23;26.48
31239;BME280;17871;31.584;74.450;2023-05-19T10:07:34;97840.75;;;40.94;26.16
31239;BME280;17871;31.584;74.450;2023-05-19T10:10:19;97837.56;;;40.84;26.19
31239;BME280;17871;31.584;74.450;2023-05-19T10:13:04;97835.28;;;41.02;26.13
31239;BME280;17871;31.584;74.450;2023-05-19T10:15:41;97834.56;;;41.15;26.23
31239;BME280;17871;31.584;74.450;2023-05-19T10:18:35;97837.81;;;41.10;26.66
31239;BME280;17871;31.584;74.450;2023-05-19T10:21:07;97828.34;;;40.65;26.72
31239;BME280;17871;31.584;74.450;2023-05-19T10:23:37;97816.63;;;40.94;27.13
31239;BME280;17871;31.584;74.450;2023-05-19T10:26:07;97819.41;;;40.79;26.24
31239;BME280;17871;31.584;74.450;2023-05-19T10:28:40;97814.78;;;40.94;28.40
31239;BME280;17871;31.584;74.450;2023-05-19T10:31:17;97807.28;;;40.83;26.35
31239;BME280;17871;31.584;74.450;2023-05-19T12:15:05;97773.22;;;39.99;26.52
31239;BME280;17871;31.584;74.450;2023-05-19T12:34:22;97756.97;;;39.65;26.55
31239;BME280;17871;31.584;74.450;2023-05-19T12:37:12;97761.06;;;39.31;26.37
31239;BME280;17871;31.584;74.450;2023-05-19T13:00:07;97754.09;;;38.93;27.34
31239;BME280;17871;31.584;74.450;2023-05-19T13:06:53;97757.00;;;38.69;28.78
31239;BME280;17871;31.584;74.450;2023-05-19T13:16:53;97738.41;;;38.38;29.68
31239;BME280;17871;31.584;74.450;2023-05-19T14:08:58;97762.25;;;37.39;30.44
31239;BME280;17871;31.584;74.450;2023-05-19T15:44:29;97884.94;;;35.74;37.50
31239;BME280;17871;31.584;74.450;2023-05-19T16:01:23;97900.91;;;35.49;40.61
31239;BME280;17871;31.584;74.450;2023-05-19T17:00:38;97913.19;;;34.88;43.23
31239;BME280;17871;31.584;74.450;2023-05-19T18:03:09;97852.41;;;33.87;46.47
31239;BME280;17871;31.584;74.450;2023-05-19T20:17:38;97823.97;;;32.20;38.16
31239;BME280;17871;31.584;74.450;2023-05-19T21:34:09;97730.53;;;31.41;39.48
